sensor_id;sensor_type;location;lat;lon;timestamp;P1;durP1;ratioP1;P2;durP2;ratioP2
23470;SDS011;11908;50.806;4.424;2024-01-15T00:01:28;40.50;;;19.17;;
23470;SDS011;11908;50.806;4.424;2024-01-15T00:03:54;42.03;;;19.10;;
23470;SDS011;11908;50.806;4.424;2024-01-15T00:06:20;39.03;;;17.95;;
23470;SDS011;11908;50.806;4.424;2024-01-15T00:08:46;38.80;;;18.27;;
23470;SDS011;11908;50.806;4.424;2024-01-15T00:11:12;40.35;;;17.38;;
23470;SDS011;11908;50.806;4.424;2024-01-15T00:13:37;34.88;;;16.80;;
23470;SDS011;11908;50.806;4.424;2024-01-15T00:16:06;37.22;;;16.42;;
23470;SDS011;11908;50.806;4.424;2024-01-15T00:18:31;32.88;;;16.63;;
23470;SDS011;11908;50.806;4.424;2024-01-15T00:20:57;30.98;;;16.33;;
23470;SDS011;11908;50.806;4.424;2024-01-15T00:23:23;33.90;;;16.45;;
23470;SDS011;11908;50.806;4.424;2024-01-15T00:25:50;38.80;;;16.27;;
23470;SDS011;11908;50.806;4.424;2024-01-15T00:28:16;32.40;;;14.52;;
23470;SDS011;11908;50.806;4.424;2024-01-15T00:30:42;34.92;;;15.27;;
23470;SDS011;11908;50.806;4.424;2024-01-15T00:33:08;33.78;;;15.27;;
23470;SDS011;11908;50.806;4.424;2024-01-15T00:35:34;31.30;;;13.68;;
23470;SDS011;11908;50.806;4.424;2024-01-15T00:38:00;30.90;;;14.20;;
23470;SDS011;11908;50.806;4.424;2024-01-15T00:40:25;34.45;;;14.00;;
23470;SDS011;11908;50.806;4.424;2024-01-15T00:42:51;25.45;;;13.27;;
23470;SDS011;11908;50.806;4.424;2024-01-15T00:45:17;25.67;;;13.32;;
23470;SDS011;11908;50.806;4.424;2024-01-15T00:47:42;27.83;;;13.23;;
23470;SDS011;11908;50.806;4.424;2024-01-15T00:50:09;24.48;;;12.20;;
23470;SDS011;11908;50.806;4.424;2024-01-15T00:52:35;23.92;;;12.15;;
23470;SDS011;11908;50.806;4.424;2024-01-15T00:55:00;24.17;;;12.35;;
23470;SDS011;11908;50.806;4.424;2024-01-15T00:57:26;20.98;;;11.52;;
23470;SDS011;11908;50.806;4.424;2024-01-15T00:59:52;24.23;;;12.48;;
23470;SDS011;11908;50.806;4.424;2024-01-15T01:02:17;23.15;;;11.27;;
23470;SDS011;11908;50.806;4.424;2024-01-15T01:04:43;23.77;;;11.30;;
23470;SDS011;11908;50.806;4.424;2024-01-15T01:07:09;23.40;;;11.93;;
23470;SDS011;11908;50.806;4.424;2024-01-15T01:09:34;25.13;;;12.00;;
23470;SDS011;11908;50.806;4.424;2024-01-15T01:12:00;24.23;;;11.95;;
23470;SDS011;11908;50.806;4.424;2024-01-15T01:14:26;17.83;;;10.70;;
23470;SDS011;11908;50.806;4.424;2024-01-15T01:16:51;21.70;;;11.60;;
23470;SDS011;11908;50.806;4.424;2024-01-15T01:19:17;22.60;;;11.38;;
23470;SDS011;11908;50.806;4.424;2024-01-15T01:21:43;24.15;;;10.82;;
23470;SDS011;11908;50.806;4.424;2024-01-15T01:24:08;24.85;;;11.77;;
23470;SDS011;11908;50.806;4.424;2024-01-15T01:26:34;20.65;;;10.48;;
23470;SDS011;11908;50.806;4.424;2024-01-15T01:29:00;19.35;;;11.45;;
23470;SDS011;11908;50.806;4.424;2024-01-15T01:31:25;20.88;;;11.43;;
23470;SDS011;11908;50.806;4.424;2024-01-15T01:33:51;21.08;;;11.18;;
23470;SDS011;11908;50.806;4.424;2024-01-15T01:36:17;26.25;;;11.73;;
23470;SDS011;11908;50.806;4.424;2024-01-15T01:38:42;24.50;;;12.05;;
23470;SDS011;11908;50.806;4.424;2024-01-15T01:41:08;20.75;;;11.15;;
23470;SDS011;11908;50.806;4.424;2024-01-15T01:43:34;22.02;;;11.80;;
23470;SDS011;11908;50.806;4.424;2024-01-15T01:46:00;20.75;;;11.10;;
23470;SDS011;11908;50.806;4.424;2024-01-15T01:48:27;20.08;;;11.15;;
23470;SDS011;11908;50.806;4.424;2024-01-15T01:50:54;19.63;;;10.68;;
23470;SDS011;11908;50.806;4.424;2024-01-15T01:53:27;17.42;;;9.75;;
23470;SDS011;11908;50.806;4.424;2024-01-15T01:55:54;17.33;;;9.93;;
23470;SDS011;11908;50.806;4.424;2024-01-15T01:58:21;17.73;;;10.23;;
23470;SDS011;11908;50.806;4.424;2024-01-15T02:04:08;17.05;;;8.45;;
23470;SDS011;11908;50.806;4.424;2024-01-15T02:06:35;15.73;;;8.98;;
23470;SDS011;11908;50.806;4.424;2024-01-15T02:09:01;18.20;;;9.73;;
23470;SDS011;11908;50.806;4.424;2024-01-15T02:11:26;14.45;;;8.20;;
23470;SDS011;11908;50.806;4.424;2024-01-15T02:13:52;16.65;;;8.90;;
23470;SDS011;11908;50.806;4.424;2024-01-15T02:16:18;19.00;;;8.80;;
23470;SDS011;11908;50.806;4.424;2024-01-15T02:18:44;14.55;;;7.53;;
23470;SDS011;11908;50.806;4.424;2024-01-15T02:21:11;17.38;;;9.18;;
23470;SDS011;11908;50.806;4.424;2024-01-15T02:23:37;17.45;;;8.88;;
23470;SDS011;11908;50.806;4.424;2024-01-15T02:26:03;16.92;;;8.13;;
23470;SDS011;11908;50.806;4.424;2024-01-15T02:28:30;14.95;;;7.43;;
23470;SDS011;11908;50.806;4.424;2024-01-15T02:30:57;13.40;;;8.13;;
23470;SDS011;11908;50.806;4.424;2024-01-15T02:33:23;12.82;;;7.40;;
23470;SDS011;11908;50.806;4.424;2024-01-15T02:35:49;13.60;;;7.43;;
23470;SDS011;11908;50.806;4.424;2024-01-15T02:38:17;14.52;;;8.57;;
23470;SDS011;11908;50.806;4.424;2024-01-15T02:40:43;13.00;;;8.52;;
23470;SDS011;11908;50.806;4.424;2024-01-15T02:43:09;18.80;;;7.65;;
23470;SDS011;11908;50.806;4.424;2024-01-15T02:45:35;16.85;;;7.80;;
23470;SDS011;11908;50.806;4.424;2024-01-15T02:48:01;12.25;;;7.55;;
23470;SDS011;11908;50.806;4.424;2024-01-15T02:50:26;14.00;;;8.35;;
23470;SDS011;11908;50.806;4.424;2024-01-15T02:52:52;15.00;;;8.63;;
23470;SDS011;11908;50.806;4.424;2024-01-15T02:55:18;14.57;;;8.57;;
23470;SDS011;11908;50.806;4.424;2024-01-15T02:57:44;15.82;;;8.95;;
23470;SDS011;11908;50.806;4.424;2024-01-15T03:00:10;15.65;;;9.43;;
23470;SDS011;11908;50.806;4.424;2024-01-15T03:02:37;19.80;;;10.63;;
23470;SDS011;11908;50.806;4.424;2024-01-15T03:05:06;17.85;;;10.00;;
23470;SDS011;11908;50.806;4.424;2024-01-15T03:07:32;18.13;;;9.90;;
23470;SDS011;11908;50.806;4.424;2024-01-15T03:09:58;16.88;;;10.05;;
23470;SDS011;11908;50.806;4.424;2024-01-15T03:12:24;22.75;;;11.45;;
23470;SDS011;11908;50.806;4.424;2024-01-15T03:14:50;25.30;;;11.55;;
23470;SDS011;11908;50.806;4.424;2024-01-15T03:17:15;18.40;;;10.20;;
23470;SDS011;11908;50.806;4.424;2024-01-15T03:19:41;23.75;;;11.85;;
23470;SDS011;11908;50.806;4.424;2024-01-15T03:22:07;21.52;;;11.85;;
23470;SDS011;11908;50.806;4.424;2024-01-15T03:24:33;19.77;;;11.82;;
23470;SDS011;11908;50.806;4.424;2024-01-15T03:26:59;24.48;;;11.77;;
23470;SDS011;11908;50.806;4.424;2024-01-15T03:29:26;23.30;;;11.65;;
23470;SDS011;11908;50.806;4.424;2024-01-15T03:31:51;21.65;;;11.45;;
23470;SDS011;11908;50.806;4.424;2024-01-15T03:34:17;21.95;;;11.57;;
23470;SDS011;11908;50.806;4.424;2024-01-15T03:36:43;22.77;;;12.52;;
23470;SDS011;11908;50.806;4.424;2024-01-15T03:39:09;22.70;;;12.25;;
23470;SDS011;11908;50.806;4.424;2024-01-15T03:41:34;25.00;;;13.55;;
23470;SDS011;11908;50.806;4.424;2024-01-15T03:44:00;27.10;;;14.00;;
23470;SDS011;11908;50.806;4.424;2024-01-15T03:46:26;25.95;;;13.68;;
23470;SDS011;11908;50.806;4.424;2024-01-15T03:48:52;28.63;;;15.02;;
23470;SDS011;11908;50.806;4.424;2024-01-15T03:51:18;26.88;;;14.35;;
23470;SDS011;11908;50.806;4.424;2024-01-15T03:53:43;28.95;;;14.82;;
23470;SDS011;11908;50.806;4.424;2024-01-15T03:56:10;28.67;;;15.95;;
23470;SDS011;11908;50.806;4.424;2024-01-15T03:58:35;26.05;;;15.02;;
23470;SDS011;11908;50.806;4.424;2024-01-15T04:01:01;27.70;;;15.18;;
23470;SDS011;11908;50.806;4.424;2024-01-15T04:03:27;30.55;;;14.40;;
23470;SDS011;11908;50.806;4.424;2024-01-15T04:05:53;29.80;;;15.07;;
23470;SDS011;11908;50.806;4.424;2024-01-15T04:08:19;28.17;;;15.02;;
23470;SDS011;11908;50.806;4.424;2024-01-15T04:10:44;28.55;;;15.25;;
23470;SDS011;11908;50.806;4.424;2024-01-15T04:13:10;32.95;;;16.27;;
23470;SDS011;11908;50.806;4.424;2024-01-15T04:15:36;26.77;;;14.80;;
23470;SDS011;11908;50.806;4.424;2024-01-15T04:18:02;30.85;;;16.90;;
23470;SDS011;11908;50.806;4.424;2024-01-15T04:20:28;31.95;;;16.55;;
23470;SDS011;11908;50.806;4.424;2024-01-15T04:22:54;28.95;;;14.82;;
23470;SDS011;11908;50.806;4.424;2024-01-15T04:25:20;28.75;;;15.50;;
23470;SDS011;11908;50.806;4.424;2024-01-15T04:27:45;30.10;;;16.55;;
23470;SDS011;11908;50.806;4.424;2024-01-15T04:30:11;30.42;;;15.70;;
23470;SDS011;11908;50.806;4.424;2024-01-15T04:32:37;27.13;;;15.75;;
23470;SDS011;11908;50.806;4.424;2024-01-15T04:35:03;31.35;;;15.90;;
23470;SDS011;11908;50.806;4.424;2024-01-15T04:37:29;31.15;;;15.88;;
23470;SDS011;11908;50.806;4.424;2024-01-15T04:39:54;31.08;;;16.27;;
23470;SDS011;11908;50.806;4.424;2024-01-15T04:42:22;26.38;;;14.45;;
23470;SDS011;11908;50.806;4.424;2024-01-15T04:44:48;29.80;;;15.73;;
23470;SDS011;11908;50.806;4.424;2024-01-15T04:47:14;28.25;;;14.45;;
23470;SDS011;11908;50.806;4.424;2024-01-15T04:49:40;28.60;;;15.00;;
23470;SDS011;11908;50.806;4.424;2024-01-15T04:52:05;27.85;;;14.50;;
23470;SDS011;11908;50.806;4.424;2024-01-15T04:54:31;25.08;;;14.45;;
23470;SDS011;11908;50.806;4.424;2024-01-15T04:56:57;27.38;;;14.43;;
23470;SDS011;11908;50.806;4.424;2024-01-15T04:59:23;28.77;;;14.60;;
23470;SDS011;11908;50.806;4.424;2024-01-15T05:01:48;22.15;;;12.98;;
23470;SDS011;11908;50.806;4.424;2024-01-15T05:04:14;19.67;;;11.07;;
23470;SDS011;11908;50.806;4.424;2024-01-15T05:06:40;21.63;;;11.25;;
23470;SDS011;11908;50.806;4.424;2024-01-15T05:09:05;23.77;;;11.27;;
23470;SDS011;11908;50.806;4.424;2024-01-15T05:11:32;23.85;;;10.65;;
23470;SDS011;11908;50.806;4.424;2024-01-15T05:13:57;16.88;;;8.95;;
23470;SDS011;11908;50.806;4.424;2024-01-15T05:16:23;14.90;;;8.50;;
23470;SDS011;11908;50.806;4.424;2024-01-15T05:18:49;17.40;;;8.00;;
23470;SDS011;11908;50.806;4.424;2024-01-15T05:21:15;14.15;;;8.27;;
23470;SDS011;11908;50.806;4.424;2024-01-15T05:23:41;12.77;;;8.07;;
23470;SDS011;11908;50.806;4.424;2024-01-15T05:26:06;14.05;;;7.75;;
23470;SDS011;11908;50.806;4.424;2024-01-15T05:28:34;11.85;;;7.28;;
23470;SDS011;11908;50.806;4.424;2024-01-15T05:30:59;13.10;;;7.22;;
23470;SDS011;11908;50.806;4.424;2024-01-15T05:33:25;11.52;;;6.60;;
23470;SDS011;11908;50.806;4.424;2024-01-15T05:35:51;14.30;;;7.50;;
23470;SDS011;11908;50.806;4.424;2024-01-15T05:38:17;10.80;;;7.53;;
23470;SDS011;11908;50.806;4.424;2024-01-15T05:40:42;11.43;;;6.57;;
23470;SDS011;11908;50.806;4.424;2024-01-15T05:43:08;10.50;;;5.47;;
23470;SDS011;11908;50.806;4.424;2024-01-15T05:45:34;10.00;;;5.82;;
23470;SDS011;11908;50.806;4.424;2024-01-15T05:48:03;13.30;;;6.05;;
23470;SDS011;11908;50.806;4.424;2024-01-15T05:50:28;12.48;;;6.55;;
23470;SDS011;11908;50.806;4.424;2024-01-15T05:52:54;14.32;;;7.93;;
23470;SDS011;11908;50.806;4.424;2024-01-15T05:55:20;15.45;;;8.10;;
23470;SDS011;11908;50.806;4.424;2024-01-15T05:57:45;11.85;;;7.15;;
23470;SDS011;11908;50.806;4.424;2024-01-15T06:00:11;11.13;;;7.05;;
23470;SDS011;11908;50.806;4.424;2024-01-15T06:02:38;9.40;;;6.18;;
23470;SDS011;11908;50.806;4.424;2024-01-15T06:05:04;12.70;;;5.82;;
23470;SDS011;11908;50.806;4.424;2024-01-15T06:07:31;11.35;;;5.22;;
23470;SDS011;11908;50.806;4.424;2024-01-15T06:09:57;9.18;;;4.55;;
23470;SDS011;11908;50.806;4.424;2024-01-15T06:12:22;9.40;;;4.68;;
23470;SDS011;11908;50.806;4.424;2024-01-15T06:14:48;6.60;;;4.03;;
23470;SDS011;11908;50.806;4.424;2024-01-15T06:17:14;9.07;;;3.90;;
23470;SDS011;11908;50.806;4.424;2024-01-15T06:19:39;6.80;;;3.67;;
23470;SDS011;11908;50.806;4.424;2024-01-15T06:22:05;6.78;;;2.72;;
23470;SDS011;11908;50.806;4.424;2024-01-15T06:24:31;6.80;;;2.70;;
23470;SDS011;11908;50.806;4.424;2024-01-15T06:26:56;5.95;;;3.20;;
23470;SDS011;11908;50.806;4.424;2024-01-15T06:29:25;9.20;;;4.05;;
23470;SDS011;11908;50.806;4.424;2024-01-15T06:31:51;6.22;;;4.03;;
23470;SDS011;11908;50.806;4.424;2024-01-15T06:34:17;12.10;;;4.65;;
23470;SDS011;11908;50.806;4.424;2024-01-15T06:36:43;8.30;;;4.25;;
23470;SDS011;11908;50.806;4.424;2024-01-15T06:39:10;9.90;;;5.07;;
23470;SDS011;11908;50.806;4.424;2024-01-15T06:41:35;16.00;;;5.13;;
23470;SDS011;11908;50.806;4.424;2024-01-15T06:44:08;10.45;;;6.15;;
23470;SDS011;11908;50.806;4.424;2024-01-15T06:46:35;10.80;;;6.32;;
23470;SDS011;11908;50.806;4.424;2024-01-15T06:49:01;14.20;;;7.70;;
23470;SDS011;11908;50.806;4.424;2024-01-15T06:51:26;12.38;;;7.78;;
23470;SDS011;11908;50.806;4.424;2024-01-15T06:53:52;17.20;;;8.82;;
23470;SDS011;11908;50.806;4.424;2024-01-15T06:56:18;14.95;;;8.15;;
23470;SDS011;11908;50.806;4.424;2024-01-15T06:58:43;15.55;;;8.50;;
23470;SDS011;11908;50.806;4.424;2024-01-15T07:01:09;17.40;;;8.95;;
23470;SDS011;11908;50.806;4.424;2024-01-15T07:03:35;16.40;;;9.43;;
23470;SDS011;11908;50.806;4.424;2024-01-15T07:06:01;14.32;;;8.40;;
23470;SDS011;11908;50.806;4.424;2024-01-15T07:08:26;18.70;;;9.50;;
23470;SDS011;11908;50.806;4.424;2024-01-15T07:10:52;19.30;;;9.45;;
23470;SDS011;11908;50.806;4.424;2024-01-15T07:13:18;21.90;;;9.82;;
23470;SDS011;11908;50.806;4.424;2024-01-15T07:15:43;21.40;;;9.63;;
23470;SDS011;11908;50.806;4.424;2024-01-15T07:18:09;21.67;;;10.57;;
23470;SDS011;11908;50.806;4.424;2024-01-15T07:20:34;20.40;;;9.52;;
23470;SDS011;11908;50.806;4.424;2024-01-15T07:23:00;15.25;;;9.75;;
23470;SDS011;11908;50.806;4.424;2024-01-15T07:25:26;13.82;;;8.90;;
23470;SDS011;11908;50.806;4.424;2024-01-15T07:27:52;12.50;;;8.48;;
23470;SDS011;11908;50.806;4.424;2024-01-15T07:30:19;16.67;;;9.77;;
23470;SDS011;11908;50.806;4.424;2024-01-15T07:32:46;18.52;;;9.73;;
23470;SDS011;11908;50.806;4.424;2024-01-15T07:35:14;14.65;;;9.15;;
23470;SDS011;11908;50.806;4.424;2024-01-15T07:37:40;17.67;;;10.00;;
23470;SDS011;11908;50.806;4.424;2024-01-15T07:40:06;18.10;;;9.80;;
23470;SDS011;11908;50.806;4.424;2024-01-15T07:42:33;17.52;;;9.60;;
23470;SDS011;11908;50.806;4.424;2024-01-15T07:45:03;18.15;;;9.77;;
23470;SDS011;11908;50.806;4.424;2024-01-15T07:47:29;27.80;;;9.10;;
23470;SDS011;11908;50.806;4.424;2024-01-15T07:49:55;16.20;;;8.55;;
23470;SDS011;11908;50.806;4.424;2024-01-15T07:52:21;12.23;;;8.98;;
23470;SDS011;11908;50.806;4.424;2024-01-15T07:54:46;18.95;;;9.32;;
23470;SDS011;11908;50.806;4.424;2024-01-15T07:57:12;15.20;;;9.18;;
23470;SDS011;11908;50.806;4.424;2024-01-15T07:59:38;14.00;;;9.15;;
23470;SDS011;11908;50.806;4.424;2024-01-15T08:02:05;22.13;;;10.48;;
23470;SDS011;11908;50.806;4.424;2024-01-15T08:04:31;18.70;;;9.43;;
23470;SDS011;11908;50.806;4.424;2024-01-15T08:06:56;15.30;;;9.43;;
23470;SDS011;11908;50.806;4.424;2024-01-15T08:09:23;15.73;;;9.23;;
23470;SDS011;11908;50.806;4.424;2024-01-15T08:11:49;16.73;;;8.68;;
23470;SDS011;11908;50.806;4.424;2024-01-15T08:14:14;20.15;;;9.23;;
23470;SDS011;11908;50.806;4.424;2024-01-15T08:16:40;18.20;;;8.05;;
23470;SDS011;11908;50.806;4.424;2024-01-15T08:19:06;15.75;;;7.50;;
23470;SDS011;11908;50.806;4.424;2024-01-15T08:21:32;12.13;;;6.68;;
23470;SDS011;11908;50.806;4.424;2024-01-15T08:24:01;16.63;;;7.25;;
23470;SDS011;11908;50.806;4.424;2024-01-15T08:26:30;16.98;;;6.72;;
23470;SDS011;11908;50.806;4.424;2024-01-15T08:28:57;14.30;;;5.90;;
23470;SDS011;11908;50.806;4.424;2024-01-15T08:31:23;17.05;;;6.38;;
23470;SDS011;11908;50.806;4.424;2024-01-15T08:33:49;12.23;;;5.30;;
23470;SDS011;11908;50.806;4.424;2024-01-15T08:36:15;13.02;;;5.80;;
23470;SDS011;11908;50.806;4.424;2024-01-15T08:38:41;9.93;;;6.60;;
23470;SDS011;11908;50.806;4.424;2024-01-15T08:41:07;7.97;;;4.00;;
23470;SDS011;11908;50.806;4.424;2024-01-15T08:43:34;10.45;;;4.20;;
23470;SDS011;11908;50.806;4.424;2024-01-15T08:46:00;9.18;;;3.92;;
23470;SDS011;11908;50.806;4.424;2024-01-15T08:48:26;10.43;;;3.97;;
23470;SDS011;11908;50.806;4.424;2024-01-15T08:50:55;13.77;;;4.13;;
23470;SDS011;11908;50.806;4.424;2024-01-15T08:53:21;7.57;;;3.42;;
23470;SDS011;11908;50.806;4.424;2024-01-15T08:55:47;7.00;;;3.33;;
23470;SDS011;11908;50.806;4.424;2024-01-15T08:58:13;10.05;;;4.00;;
23470;SDS011;11908;50.806;4.424;2024-01-15T09:00:39;11.23;;;3.83;;
23470;SDS011;11908;50.806;4.424;2024-01-15T09:03:04;6.70;;;3.13;;
23470;SDS011;11908;50.806;4.424;2024-01-15T09:05:30;8.45;;;3.25;;
23470;SDS011;11908;50.806;4.424;2024-01-15T09:07:56;8.40;;;3.22;;
23470;SDS011;11908;50.806;4.424;2024-01-15T09:10:22;11.57;;;2.85;;
23470;SDS011;11908;50.806;4.424;2024-01-15T09:12:47;10.40;;;3.83;;
23470;SDS011;11908;50.806;4.424;2024-01-15T09:15:14;10.75;;;3.25;;
23470;SDS011;11908;50.806;4.424;2024-01-15T09:17:40;13.38;;;3.05;;
23470;SDS011;11908;50.806;4.424;2024-01-15T09:20:05;6.75;;;2.90;;
23470;SDS011;11908;50.806;4.424;2024-01-15T09:22:32;11.05;;;2.70;;
23470;SDS011;11908;50.806;4.424;2024-01-15T09:24:58;9.52;;;3.53;;
23470;SDS011;11908;50.806;4.424;2024-01-15T09:27:24;6.40;;;2.72;;
23470;SDS011;11908;50.806;4.424;2024-01-15T09:29:52;6.75;;;2.70;;
23470;SDS011;11908;50.806;4.424;2024-01-15T09:32:18;11.52;;;2.80;;
23470;SDS011;11908;50.806;4.424;2024-01-15T09:34:45;11.57;;;3.00;;
23470;SDS011;11908;50.806;4.424;2024-01-15T09:37:11;9.35;;;3.00;;
23470;SDS011;11908;50.806;4.424;2024-01-15T09:39:39;11.05;;;4.00;;
23470;SDS011;11908;50.806;4.424;2024-01-15T09:42:05;10.00;;;3.50;;
23470;SDS011;11908;50.806;4.424;2024-01-15T09:44:30;11.82;;;4.47;;
23470;SDS011;11908;50.806;4.424;2024-01-15T09:46:57;10.70;;;2.88;;
23470;SDS011;11908;50.806;4.424;2024-01-15T09:49:23;10.27;;;3.08;;
23470;SDS011;11908;50.806;4.424;2024-01-15T09:51:49;9.07;;;2.67;;
23470;SDS011;11908;50.806;4.424;2024-01-15T09:54:18;11.10;;;2.97;;
23470;SDS011;11908;50.806;4.424;2024-01-15T09:56:46;9.70;;;2.80;;
23470;SDS011;11908;50.806;4.424;2024-01-15T09:59:14;7.53;;;2.15;;
23470;SDS011;11908;50.806;4.424;2024-01-15T10:01:44;9.95;;;2.63;;
23470;SDS011;11908;50.806;4.424;2024-01-15T10:04:11;7.65;;;2.33;;
23470;SDS011;11908;50.806;4.424;2024-01-15T10:06:46;9.93;;;2.33;;
23470;SDS011;11908;50.806;4.424;2024-01-15T10:09:12;7.30;;;2.10;;
23470;SDS011;11908;50.806;4.424;2024-01-15T10:11:42;8.07;;;1.83;;
23470;SDS011;11908;50.806;4.424;2024-01-15T10:14:11;9.60;;;2.25;;
23470;SDS011;11908;50.806;4.424;2024-01-15T10:16:41;6.93;;;2.30;;
23470;SDS011;11908;50.806;4.424;2024-01-15T10:19:07;9.05;;;2.20;;
23470;SDS011;11908;50.806;4.424;2024-01-15T10:21:33;11.35;;;2.25;;
23470;SDS011;11908;50.806;4.424;2024-01-15T10:24:02;8.85;;;2.03;;
23470;SDS011;11908;50.806;4.424;2024-01-15T10:26:29;6.72;;;1.85;;
23470;SDS011;11908;50.806;4.424;2024-01-15T10:28:55;4.88;;;2.45;;
23470;SDS011;11908;50.806;4.424;2024-01-15T10:31:21;13.65;;;2.05;;
23470;SDS011;11908;50.806;4.424;2024-01-15T10:33:50;12.10;;;2.25;;
23470;SDS011;11908;50.806;4.424;2024-01-15T10:36:16;5.80;;;2.00;;
23470;SDS011;11908;50.806;4.424;2024-01-15T10:38:43;6.85;;;2.58;;
23470;SDS011;11908;50.806;4.424;2024-01-15T10:41:09;14.57;;;5.50;;
23470;SDS011;11908;50.806;4.424;2024-01-15T10:43:35;7.93;;;3.33;;
23470;SDS011;11908;50.806;4.424;2024-01-15T10:46:01;10.27;;;3.05;;
23470;SDS011;11908;50.806;4.424;2024-01-15T10:48:28;6.10;;;2.50;;
23470;SDS011;11908;50.806;4.424;2024-01-15T10:50:55;15.85;;;4.53;;
23470;SDS011;11908;50.806;4.424;2024-01-15T10:53:24;12.98;;;4.60;;
23470;SDS011;11908;50.806;4.424;2024-01-15T10:55:50;13.00;;;3.63;;
23470;SDS011;11908;50.806;4.424;2024-01-15T10:58:16;51.50;;;25.02;;
23470;SDS011;11908;50.806;4.424;2024-01-15T11:00:43;43.67;;;25.52;;
23470;SDS011;11908;50.806;4.424;2024-01-15T11:03:09;10.82;;;4.90;;
23470;SDS011;11908;50.806;4.424;2024-01-15T11:05:38;11.95;;;4.18;;
23470;SDS011;11908;50.806;4.424;2024-01-15T11:08:06;14.65;;;6.32;;
23470;SDS011;11908;50.806;4.424;2024-01-15T11:10:48;12.88;;;4.50;;
23470;SDS011;11908;50.806;4.424;2024-01-15T11:18:21;13.73;;;6.35;;
23470;SDS011;11908;50.806;4.424;2024-01-15T11:23:47;10.98;;;5.18;;
23470;SDS011;11908;50.806;4.424;2024-01-15T11:34:06;8.50;;;2.45;;
23470;SDS011;11908;50.806;4.424;2024-01-15T11:41:56;5.07;;;1.65;;
23470;SDS011;11908;50.806;4.424;2024-01-15T11:44:23;8.18;;;3.03;;
23470;SDS011;11908;50.806;4.424;2024-01-15T11:49:31;5.68;;;2.80;;
23470;SDS011;11908;50.806;4.424;2024-01-15T11:52:15;8.05;;;2.28;;
23470;SDS011;11908;50.806;4.424;2024-01-15T11:54:45;7.53;;;1.95;;
23470;SDS011;11908;50.806;4.424;2024-01-15T11:57:33;12.13;;;4.10;;
23470;SDS011;11908;50.806;4.424;2024-01-15T12:00:07;17.33;;;2.20;;
23470;SDS011;11908;50.806;4.424;2024-01-15T12:02:36;11.88;;;3.17;;
23470;SDS011;11908;50.806;4.424;2024-01-15T12:05:02;9.00;;;3.03;;
23470;SDS011;11908;50.806;4.424;2024-01-15T12:07:28;13.60;;;4.13;;
23470;SDS011;11908;50.806;4.424;2024-01-15T12:09:54;6.57;;;2.85;;
23470;SDS011;11908;50.806;4.424;2024-01-15T12:15:15;7.68;;;2.22;;
23470;SDS011;11908;50.806;4.424;2024-01-15T12:17:40;7.28;;;1.90;;
23470;SDS011;11908;50.806;4.424;2024-01-15T12:20:06;8.70;;;2.42;;
23470;SDS011;11908;50.806;4.424;2024-01-15T12:22:32;7.65;;;1.95;;
23470;SDS011;11908;50.806;4.424;2024-01-15T12:24:58;9.25;;;2.55;;
23470;SDS011;11908;50.806;4.424;2024-01-15T12:27:24;8.38;;;2.13;;
23470;SDS011;11908;50.806;4.424;2024-01-15T12:29:50;7.20;;;1.73;;
23470;SDS011;11908;50.806;4.424;2024-01-15T12:32:18;6.63;;;1.90;;
23470;SDS011;11908;50.806;4.424;2024-01-15T12:34:44;4.90;;;2.15;;
23470;SDS011;11908;50.806;4.424;2024-01-15T12:37:09;7.38;;;2.00;;
23470;SDS011;11908;50.806;4.424;2024-01-15T12:39:37;9.15;;;2.20;;
23470;SDS011;11908;50.806;4.424;2024-01-15T12:42:03;6.80;;;2.00;;
23470;SDS011;11908;50.806;4.424;2024-01-15T12:44:30;11.75;;;2.38;;
23470;SDS011;11908;50.806;4.424;2024-01-15T12:46:56;7.88;;;2.00;;
23470;SDS011;11908;50.806;4.424;2024-01-15T12:49:23;7.03;;;1.52;;
23470;SDS011;11908;50.806;4.424;2024-01-15T12:52:32;5.88;;;1.45;;
23470;SDS011;11908;50.806;4.424;2024-01-15T12:54:38;7.13;;;1.50;;
23470;SDS011;11908;50.806;4.424;2024-01-15T12:57:04;6.55;;;1.52;;
23470;SDS011;11908;50.806;4.424;2024-01-15T12:59:29;8.90;;;1.85;;
23470;SDS011;11908;50.806;4.424;2024-01-15T13:01:55;7.07;;;1.77;;
23470;SDS011;11908;50.806;4.424;2024-01-15T13:04:21;3.88;;;1.25;;
23470;SDS011;11908;50.806;4.424;2024-01-15T13:06:48;5.45;;;1.38;;
23470;SDS011;11908;50.806;4.424;2024-01-15T13:09:15;6.63;;;1.35;;
23470;SDS011;11908;50.806;4.424;2024-01-15T13:11:40;11.07;;;1.70;;
23470;SDS011;11908;50.806;4.424;2024-01-15T13:14:06;8.25;;;1.65;;
23470;SDS011;11908;50.806;4.424;2024-01-15T13:16:32;8.15;;;2.00;;
23470;SDS011;11908;50.806;4.424;2024-01-15T13:18:58;5.82;;;1.48;;
23470;SDS011;11908;50.806;4.424;2024-01-15T13:21:23;7.15;;;1.90;;
23470;SDS011;11908;50.806;4.424;2024-01-15T13:23:49;6.00;;;2.13;;
23470;SDS011;11908;50.806;4.424;2024-01-15T13:26:15;7.68;;;1.70;;
23470;SDS011;11908;50.806;4.424;2024-01-15T13:28:43;11.88;;;2.08;;
23470;SDS011;11908;50.806;4.424;2024-01-15T13:31:09;8.25;;;1.95;;
23470;SDS011;11908;50.806;4.424;2024-01-15T13:33:34;10.98;;;1.73;;
23470;SDS011;11908;50.806;4.424;2024-01-15T13:36:00;12.23;;;2.35;;
23470;SDS011;11908;50.806;4.424;2024-01-15T13:38:26;13.30;;;2.60;;
23470;SDS011;11908;50.806;4.424;2024-01-15T13:40:52;10.85;;;1.90;;
23470;SDS011;11908;50.806;4.424;2024-01-15T13:43:20;5.47;;;1.65;;
23470;SDS011;11908;50.806;4.424;2024-01-15T13:45:46;9.45;;;2.03;;
23470;SDS011;11908;50.806;4.424;2024-01-15T13:48:11;7.78;;;2.22;;
23470;SDS011;11908;50.806;4.424;2024-01-15T13:50:37;11.60;;;2.05;;
23470;SDS011;11908;50.806;4.424;2024-01-15T13:53:03;9.15;;;1.98;;
23470;SDS011;11908;50.806;4.424;2024-01-15T13:55:29;8.93;;;1.60;;
23470;SDS011;11908;50.806;4.424;2024-01-15T13:57:55;12.50;;;2.55;;
23470;SDS011;11908;50.806;4.424;2024-01-15T14:00:20;9.27;;;1.90;;
23470;SDS011;11908;50.806;4.424;2024-01-15T14:02:47;3.92;;;1.60;;
23470;SDS011;11908;50.806;4.424;2024-01-15T14:05:13;10.98;;;2.50;;
23470;SDS011;11908;50.806;4.424;2024-01-15T14:07:39;8.00;;;3.33;;
23470;SDS011;11908;50.806;4.424;2024-01-15T14:10:05;10.45;;;3.17;;
23470;SDS011;11908;50.806;4.424;2024-01-15T14:12:33;9.15;;;3.15;;
23470;SDS011;11908;50.806;4.424;2024-01-15T14:14:59;11.13;;;4.75;;
23470;SDS011;11908;50.806;4.424;2024-01-15T14:17:26;13.80;;;4.68;;
23470;SDS011;11908;50.806;4.424;2024-01-15T14:19:52;11.52;;;3.20;;
23470;SDS011;11908;50.806;4.424;2024-01-15T14:22:18;8.85;;;3.60;;
23470;SDS011;11908;50.806;4.424;2024-01-15T14:24:44;20.67;;;5.07;;
23470;SDS011;11908;50.806;4.424;2024-01-15T14:27:09;9.70;;;5.28;;
23470;SDS011;11908;50.806;4.424;2024-01-15T14:29:35;6.53;;;3.10;;
23470;SDS011;11908;50.806;4.424;2024-01-15T14:32:01;9.73;;;4.00;;
23470;SDS011;11908;50.806;4.424;2024-01-15T14:34:27;16.33;;;5.22;;
23470;SDS011;11908;50.806;4.424;2024-01-15T14:36:53;15.32;;;4.97;;
23470;SDS011;11908;50.806;4.424;2024-01-15T14:39:19;8.75;;;2.55;;
23470;SDS011;11908;50.806;4.424;2024-01-15T14:41:46;14.02;;;4.38;;
23470;SDS011;11908;50.806;4.424;2024-01-15T14:44:12;11.73;;;2.95;;
23470;SDS011;11908;50.806;4.424;2024-01-15T14:46:38;9.70;;;3.50;;
23470;SDS011;11908;50.806;4.424;2024-01-15T14:49:03;11.35;;;2.80;;
23470;SDS011;11908;50.806;4.424;2024-01-15T14:51:30;13.35;;;3.42;;
23470;SDS011;11908;50.806;4.424;2024-01-15T14:53:55;17.98;;;7.97;;
23470;SDS011;11908;50.806;4.424;2024-01-15T14:56:21;19.77;;;8.32;;
23470;SDS011;11908;50.806;4.424;2024-01-15T14:58:47;11.38;;;4.78;;